sensor_id;sensor_type;location;lat;lon;timestamp;temperature;humidity
70151;DHT22;57517;43.562;19.540;2022-12-05T00:03:53;179.50;2252.80
70151;DHT22;57517;43.562;19.540;2022-12-05T00:06:19;179.50;2252.80
70151;DHT22;57517;43.562;19.540;2022-12-05T00:08:46;179.50;2252.80
70151;DHT22;57517;43.562;19.540;2022-12-05T00:11:24;179.50;2252.80
70151;DHT22;57517;43.562;19.540;2022-12-05T00:13:52;179.50;2252.80
70151;DHT22;57517;43.562;19.540;2022-12-05T00:16:20;179.50;2252.80
70151;DHT22;57517;43.562;19.540;2022-12-05T00:18:47;179.50;2252.80
70151;DHT22;57517;43.562;19.540;2022-12-05T00:21:21;179.50;2252.80
70151;DHT22;57517;43.562;19.540;2022-12-05T00:23:48;179.40;2252.80
70151;DHT22;57517;43.562;19.540;2022-12-05T00:26:14;179.40;2252.80
70151;DHT22;57517;43.562;19.540;2022-12-05T00:28:41;179.40;2252.80
70151;DHT22;57517;43.562;19.540;2022-12-05T00:31:09;179.40;2252.80
70151;DHT22;57517;43.562;19.540;2022-12-05T00:33:35;179.50;2252.80
70151;DHT22;57517;43.562;19.540;2022-12-05T00:36:07;179.50;2252.80
70151;DHT22;57517;43.562;19.540;2022-12-05T00:38:34;179.40;2252.80
70151;DHT22;57517;43.562;19.540;2022-12-05T00:41:04;179.40;2252.80
70151;DHT22;57517;43.562;19.540;2022-12-05T00:43:31;179.30;2252.80
70151;DHT22;57517;43.562;19.540;2022-12-05T00:46:10;179.20;2252.80
70151;DHT22;57517;43.562;19.540;2022-12-05T00:48:36;179.20;2252.80
70151;DHT22;57517;43.562;19.540;2022-12-05T00:51:04;179.20;2252.80
70151;DHT22;57517;43.562;19.540;2022-12-05T00:53:31;179.30;2252.80
70151;DHT22;57517;43.562;19.540;2022-12-05T00:56:19;179.30;2252.80
70151;DHT22;57517;43.562;19.540;2022-12-05T00:58:46;179.30;2252.80
70151;DHT22;57517;43.562;19.540;2022-12-05T01:01:19;179.20;2252.80
70151;DHT22;57517;43.562;19.540;2022-12-05T01:03:46;179.30;2252.80
70151;DHT22;57517;43.562;19.540;2022-12-05T01:06:13;179.20;2252.80
70151;DHT22;57517;43.562;19.540;2022-12-05T01:08:39;179.30;2252.80
70151;DHT22;57517;43.562;19.540;2022-12-05T01:11:06;179.20;2252.80
70151;DHT22;57517;43.562;19.540;2022-12-05T01:13:32;179.20;2252.80
70151;DHT22;57517;43.562;19.540;2022-12-05T01:15:58;179.20;2252.80
70151;DHT22;57517;43.562;19.540;2022-12-05T01:18:25;179.20;2252.80
70151;DHT22;57517;43.562;19.540;2022-12-05T01:20:51;179.20;2252.80
70151;DHT22;57517;43.562;19.540;2022-12-05T01:23:17;179.20;2252.80
70151;DHT22;57517;43.562;19.540;2022-12-05T01:25:45;179.20;2252.80
70151;DHT22;57517;43.562;19.540;2022-12-05T01:28:13;179.20;2252.80
70151;DHT22;57517;43.562;19.540;2022-12-05T01:30:40;179.20;2252.80
70151;DHT22;57517;43.562;19.540;2022-12-05T01:33:07;154.50;2252.80
70151;DHT22;57517;43.562;19.540;2022-12-05T01:35:35;154.50;2252.80
70151;DHT22;57517;43.562;19.540;2022-12-05T01:38:01;154.50;2252.80
70151;DHT22;57517;43.562;19.540;2022-12-05T01:40:27;154.40;2252.80
70151;DHT22;57517;43.562;19.540;2022-12-05T01:42:53;154.40;2252.80
70151;DHT22;57517;43.562;19.540;2022-12-05T01:45:35;154.30;2252.80
70151;DHT22;57517;43.562;19.540;2022-12-05T01:48:04;154.30;2252.80
70151;DHT22;57517;43.562;19.540;2022-12-05T01:50:31;154.30;2252.80
70151;DHT22;57517;43.562;19.540;2022-12-05T01:52:57;154.30;2252.80
70151;DHT22;57517;43.562;19.540;2022-12-05T01:55:23;154.30;2252.80
70151;DHT22;57517;43.562;19.540;2022-12-05T01:57:49;154.30;2252.80
70151;DHT22;57517;43.562;19.540;2022-12-05T02:00:17;154.40;2252.80
70151;DHT22;57517;43.562;19.540;2022-12-05T02:02:53;154.40;2252.80
70151;DHT22;57517;43.562;19.540;2022-12-05T02:05:27;154.40;2252.80
70151;DHT22;57517;43.562;19.540;2022-12-05T02:07:53;154.40;2252.80
70151;DHT22;57517;43.562;19.540;2022-12-05T02:10:19;154.40;2252.80
70151;DHT22;57517;43.562;19.540;2022-12-05T02:12:46;154.50;2252.80
70151;DHT22;57517;43.562;19.540;2022-12-05T02:24:28;154.50;2252.80
70151;DHT22;57517;43.562;19.540;2022-12-05T02:27:12;154.50;2252.80
70151;DHT22;57517;43.562;19.540;2022-12-05T02:35:45;179.20;2252.80
70151;DHT22;57517;43.562;19.540;2022-12-05T02:44:16;154.50;2252.80
70151;DHT22;57517;43.562;19.540;2022-12-05T02:46:13;154.50;2252.80
70151;DHT22;57517;43.562;19.540;2022-12-05T02:48:41;154.40;2252.80
70151;DHT22;57517;43.562;19.540;2022-12-05T02:51:13;154.40;2252.80
70151;DHT22;57517;43.562;19.540;2022-12-05T02:53:39;154.40;2252.80
70151;DHT22;57517;43.562;19.540;2022-12-05T02:56:06;154.40;2252.80
70151;DHT22;57517;43.562;19.540;2022-12-05T02:58:40;154.50;2252.80
70151;DHT22;57517;43.562;19.540;2022-12-05T03:01:09;154.50;2252.80
70151;DHT22;57517;43.562;19.540;2022-12-05T03:03:35;154.50;2252.80
70151;DHT22;57517;43.562;19.540;2022-12-05T03:06:10;154.50;2252.80
70151;DHT22;57517;43.562;19.540;2022-12-05T03:08:52;154.50;2252.80
70151;DHT22;57517;43.562;19.540;2022-12-05T03:11:19;154.50;2252.80
70151;DHT22;57517;43.562;19.540;2022-12-05T03:13:52;154.50;2252.80
70151;DHT22;57517;43.562;19.540;2022-12-05T03:16:41;154.50;2252.80
70151;DHT22;57517;43.562;19.540;2022-12-05T03:19:22;154.40;2252.80
70151;DHT22;57517;43.562;19.540;2022-12-05T03:21:58;154.50;2252.80
70151;DHT22;57517;43.562;19.540;2022-12-05T03:24:25;154.50;2252.80
70151;DHT22;57517;43.562;19.540;2022-12-05T03:34:46;179.20;2252.80
70151;DHT22;57517;43.562;19.540;2022-12-05T03:40:25;179.20;2252.80
70151;DHT22;57517;43.562;19.540;2022-12-05T03:43:02;179.20;2252.80
70151;DHT22;57517;43.562;19.540;2022-12-05T03:45:38;179.20;2252.80
70151;DHT22;57517;43.562;19.540;2022-12-05T03:48:22;154.50;2252.80
70151;DHT22;57517;43.562;19.540;2022-12-05T03:50:49;154.50;2252.80
70151;DHT22;57517;43.562;19.540;2022-12-05T03:53:23;154.50;2252.80
70151;DHT22;57517;43.562;19.540;2022-12-05T03:55:56;154.50;2252.80
70151;DHT22;57517;43.562;19.540;2022-12-05T03:58:30;154.50;2252.80
70151;DHT22;57517;43.562;19.540;2022-12-05T04:00:59;154.40;2252.80
70151;DHT22;57517;43.562;19.540;2022-12-05T04:03:35;154.40;2252.80
70151;DHT22;57517;43.562;19.540;2022-12-05T04:06:16;154.40;2252.80
70151;DHT22;57517;43.562;19.540;2022-12-05T04:09:09;154.40;2252.80
70151;DHT22;57517;43.562;19.540;2022-12-05T04:11:39;154.40;2252.80
70151;DHT22;57517;43.562;19.540;2022-12-05T04:14:33;154.40;2252.80
70151;DHT22;57517;43.562;19.540;2022-12-05T04:17:01;154.40;2252.80
70151;DHT22;57517;43.562;19.540;2022-12-05T04:19:47;154.40;2252.80
70151;DHT22;57517;43.562;19.540;2022-12-05T04:22:33;154.40;2252.80
70151;DHT22;57517;43.562;19.540;2022-12-05T04:25:02;154.40;2252.80
70151;DHT22;57517;43.562;19.540;2022-12-05T04:28:33;154.40;2252.80
70151;DHT22;57517;43.562;19.540;2022-12-05T04:31:09;154.50;2252.80
70151;DHT22;57517;43.562;19.540;2022-12-05T04:33:48;154.50;2252.80
70151;DHT22;57517;43.562;19.540;2022-12-05T04:36:35;154.50;2252.80
70151;DHT22;57517;43.562;19.540;2022-12-05T04:44:19;154.30;2252.80
70151;DHT22;57517;43.562;19.540;2022-12-05T04:46:46;154.30;2252.80
70151;DHT22;57517;43.562;19.540;2022-12-05T04:49:19;154.30;2252.80
70151;DHT22;57517;43.562;19.540;2022-12-05T04:51:51;154.20;2252.80
70151;DHT22;57517;43.562;19.540;2022-12-05T04:54:31;154.20;2252.80
70151;DHT22;57517;43.562;19.540;2022-12-05T04:57:06;154.20;2252.80
70151;DHT22;57517;43.562;19.540;2022-12-05T04:59:33;154.20;2252.80
70151;DHT22;57517;43.562;19.540;2022-12-05T05:02:05;154.20;2252.80
70151;DHT22;57517;43.562;19.540;2022-12-05T05:04:41;154.20;2252.80
70151;DHT22;57517;43.562;19.540;2022-12-05T05:07:12;154.30;2252.80
70151;DHT22;57517;43.562;19.540;2022-12-05T05:09:38;154.40;2252.80
70151;DHT22;57517;43.562;19.540;2022-12-05T05:12:05;154.40;2252.80
70151;DHT22;57517;43.562;19.540;2022-12-05T05:14:31;154.40;2252.80
70151;DHT22;57517;43.562;19.540;2022-12-05T05:16:57;154.40;2252.80
70151;DHT22;57517;43.562;19.540;2022-12-05T05:19:23;154.40;2252.80
70151;DHT22;57517;43.562;19.540;2022-12-05T05:21:50;154.40;2252.80
70151;DHT22;57517;43.562;19.540;2022-12-05T05:24:17;154.40;2252.80
70151;DHT22;57517;43.562;19.540;2022-12-05T05:26:44;154.40;2252.80
70151;DHT22;57517;43.562;19.540;2022-12-05T05:29:11;154.40;2252.80
70151;DHT22;57517;43.562;19.540;2022-12-05T05:31:38;154.30;2252.80
70151;DHT22;57517;43.562;19.540;2022-12-05T05:34:05;154.30;2252.80
70151;DHT22;57517;43.562;19.540;2022-12-05T05:36:30;154.30;2252.80
70151;DHT22;57517;43.562;19.540;2022-12-05T05:39:01;154.20;2252.80
70151;DHT22;57517;43.562;19.540;2022-12-05T05:41:29;154.20;2252.80
70151;DHT22;57517;43.562;19.540;2022-12-05T05:43:56;154.20;2252.80
70151;DHT22;57517;43.562;19.540;2022-12-05T05:46:25;154.20;2252.80
70151;DHT22;57517;43.562;19.540;2022-12-05T05:48:52;154.30;2252.80
70151;DHT22;57517;43.562;19.540;2022-12-05T05:51:19;154.30;2252.80
70151;DHT22;57517;43.562;19.540;2022-12-05T05:53:45;154.30;2252.80
70151;DHT22;57517;43.562;19.540;2022-12-05T05:56:14;154.30;2252.80
70151;DHT22;57517;43.562;19.540;2022-12-05T05:58:40;154.30;2252.80
70151;DHT22;57517;43.562;19.540;2022-12-05T06:01:09;154.30;2252.80
70151;DHT22;57517;43.562;19.540;2022-12-05T06:03:36;154.30;2252.80
70151;DHT22;57517;43.562;19.540;2022-12-05T06:06:04;154.30;2252.80
70151;DHT22;57517;43.562;19.540;2022-12-05T06:08:32;154.30;2252.80
70151;DHT22;57517;43.562;19.540;2022-12-05T06:10:59;154.30;2252.80
70151;DHT22;57517;43.562;19.540;2022-12-05T06:13:25;154.30;2252.80
70151;DHT22;57517;43.562;19.540;2022-12-05T06:15:51;154.30;2252.80
70151;DHT22;57517;43.562;19.540;2022-12-05T06:18:17;154.30;2252.80
70151;DHT22;57517;43.562;19.540;2022-12-05T06:20:59;154.20;2252.80
70151;DHT22;57517;43.562;19.540;2022-12-05T06:23:25;154.10;2252.80
70151;DHT22;57517;43.562;19.540;2022-12-05T06:25:54;154.00;2252.80
70151;DHT22;57517;43.562;19.540;2022-12-05T06:28:22;154.00;2252.80
70151;DHT22;57517;43.562;19.540;2022-12-05T06:30:48;153.90;2252.80
70151;DHT22;57517;43.562;19.540;2022-12-05T06:33:14;153.90;2252.80
70151;DHT22;57517;43.562;19.540;2022-12-05T06:35:40;153.90;2252.80
70151;DHT22;57517;43.562;19.540;2022-12-05T06:38:06;153.90;2252.80
70151;DHT22;57517;43.562;19.540;2022-12-05T06:40:33;153.80;2252.80
70151;DHT22;57517;43.562;19.540;2022-12-05T06:42:59;153.80;2252.80
70151;DHT22;57517;43.562;19.540;2022-12-05T06:45:25;153.80;2252.80
70151;DHT22;57517;43.562;19.540;2022-12-05T06:47:51;153.90;2252.80
70151;DHT22;57517;43.562;19.540;2022-12-05T06:50:17;153.90;2252.80
70151;DHT22;57517;43.562;19.540;2022-12-05T06:52:43;153.90;2252.80
70151;DHT22;57517;43.562;19.540;2022-12-05T06:55:09;153.90;2252.80
70151;DHT22;57517;43.562;19.540;2022-12-05T06:57:35;153.90;2252.80
70151;DHT22;57517;43.562;19.540;2022-12-05T07:00:02;154.00;2252.80
70151;DHT22;57517;43.562;19.540;2022-12-05T07:02:49;154.10;2252.80
70151;DHT22;57517;43.562;19.540;2022-12-05T07:05:15;154.20;2252.80
70151;DHT22;57517;43.562;19.540;2022-12-05T07:07:41;154.20;2252.80
70151;DHT22;57517;43.562;19.540;2022-12-05T07:10:07;154.30;2252.80
70151;DHT22;57517;43.562;19.540;2022-12-05T07:12:33;154.30;2252.80
70151;DHT22;57517;43.562;19.540;2022-12-05T07:14:59;154.30;2252.80
70151;DHT22;57517;43.562;19.540;2022-12-05T07:17:26;154.30;2252.80
70151;DHT22;57517;43.562;19.540;2022-12-05T07:19:52;154.40;2252.80
70151;DHT22;57517;43.562;19.540;2022-12-05T07:22:19;154.40;2252.80
70151;DHT22;57517;43.562;19.540;2022-12-05T07:24:46;154.50;2252.80
70151;DHT22;57517;43.562;19.540;2022-12-05T07:27:13;179.20;2252.80
70151;DHT22;57517;43.562;19.540;2022-12-05T07:29:40;179.20;2252.80
70151;DHT22;57517;43.562;19.540;2022-12-05T07:32:06;179.30;2252.80
70151;DHT22;57517;43.562;19.540;2022-12-05T07:34:32;179.30;2252.80
70151;DHT22;57517;43.562;19.540;2022-12-05T07:36:59;179.40;2252.80
70151;DHT22;57517;43.562;19.540;2022-12-05T07:39:25;179.40;2252.80
70151;DHT22;57517;43.562;19.540;2022-12-05T07:41:50;179.50;2252.80
70151;DHT22;57517;43.562;19.540;2022-12-05T07:44:16;179.50;2252.80
70151;DHT22;57517;43.562;19.540;2022-12-05T07:46:42;179.50;2252.80
70151;DHT22;57517;43.562;19.540;2022-12-05T07:49:08;179.50;2252.80
70151;DHT22;57517;43.562;19.540;2022-12-05T07:51:34;179.50;2252.80
70151;DHT22;57517;43.562;19.540;2022-12-05T07:54:01;179.50;2252.80
70151;DHT22;57517;43.562;19.540;2022-12-05T07:56:27;179.50;2252.80
70151;DHT22;57517;43.562;19.540;2022-12-05T07:58:53;179.50;2252.80
70151;DHT22;57517;43.562;19.540;2022-12-05T08:01:26;179.50;2252.80
70151;DHT22;57517;43.562;19.540;2022-12-05T08:03:54;179.60;2252.80
70151;DHT22;57517;43.562;19.540;2022-12-05T08:06:22;179.60;2252.80
70151;DHT22;57517;43.562;19.540;2022-12-05T08:08:49;179.60;2252.80
70151;DHT22;57517;43.562;19.540;2022-12-05T08:11:21;179.60;2252.80
70151;DHT22;57517;43.562;19.540;2022-12-05T08:13:47;179.50;2252.80
70151;DHT22;57517;43.562;19.540;2022-12-05T08:16:16;179.50;2252.80
70151;DHT22;57517;43.562;19.540;2022-12-05T08:18:42;179.50;2252.80
70151;DHT22;57517;43.562;19.540;2022-12-05T08:21:17;179.50;2252.80
70151;DHT22;57517;43.562;19.540;2022-12-05T08:23:44;179.50;2252.80
70151;DHT22;57517;43.562;19.540;2022-12-05T08:26:12;179.50;2252.80
70151;DHT22;57517;43.562;19.540;2022-12-05T08:28:38;179.50;2252.80
70151;DHT22;57517;43.562;19.540;2022-12-05T08:31:10;179.40;2252.80
70151;DHT22;57517;43.562;19.540;2022-12-05T08:33:36;179.50;2252.80
70151;DHT22;57517;43.562;19.540;2022-12-05T08:36:04;179.50;2252.80
70151;DHT22;57517;43.562;19.540;2022-12-05T08:38:31;179.50;2252.80
70151;DHT22;57517;43.562;19.540;2022-12-05T08:41:06;179.50;2252.80
70151;DHT22;57517;43.562;19.540;2022-12-05T08:43:32;179.50;2252.80
70151;DHT22;57517;43.562;19.540;2022-12-05T08:45:59;179.60;2252.80
70151;DHT22;57517;43.562;19.540;2022-12-05T08:48:26;179.60;2252.80
70151;DHT22;57517;43.562;19.540;2022-12-05T08:50:52;179.60;2252.80
70151;DHT22;57517;43.562;19.540;2022-12-05T08:53:18;179.60;2252.80
70151;DHT22;57517;43.562;19.540;2022-12-05T08:55:44;179.60;2252.80
70151;DHT22;57517;43.562;19.540;2022-12-05T08:58:10;179.60;2252.80
70151;DHT22;57517;43.562;19.540;2022-12-05T09:00:36;179.70;2252.80
70151;DHT22;57517;43.562;19.540;2022-12-05T09:03:03;179.70;2252.80
70151;DHT22;57517;43.562;19.540;2022-12-05T09:05:28;179.70;2252.80
70151;DHT22;57517;43.562;19.540;2022-12-05T09:07:54;179.70;2252.80
70151;DHT22;57517;43.562;19.540;2022-12-05T09:10:20;179.70;2252.80
70151;DHT22;57517;43.562;19.540;2022-12-05T09:12:46;179.70;2252.80
70151;DHT22;57517;43.562;19.540;2022-12-05T09:15:12;179.70;2252.80
70151;DHT22;57517;43.562;19.540;2022-12-05T09:17:38;179.70;2252.80
70151;DHT22;57517;43.562;19.540;2022-12-05T09:20:06;179.80;2252.80
70151;DHT22;57517;43.562;19.540;2022-12-05T09:22:32;179.80;2252.80
70151;DHT22;57517;43.562;19.540;2022-12-05T09:24:58;179.80;2252.80
70151;DHT22;57517;43.562;19.540;2022-12-05T09:27:27;179.90;2252.80
70151;DHT22;57517;43.562;19.540;2022-12-05T09:29:53;180.00;2252.80
70151;DHT22;57517;43.562;19.540;2022-12-05T09:32:19;180.10;2252.80
70151;DHT22;57517;43.562;19.540;2022-12-05T09:34:44;180.00;2252.80
70151;DHT22;57517;43.562;19.540;2022-12-05T09:37:10;180.10;2252.80
70151;DHT22;57517;43.562;19.540;2022-12-05T09:39:37;180.10;2252.80
70151;DHT22;57517;43.562;19.540;2022-12-05T09:52:47;204.90;2252.80
70151;DHT22;57517;43.562;19.540;2022-12-05T09:55:16;204.90;2252.80
70151;DHT22;57517;43.562;19.540;2022-12-05T09:57:49;204.90;2252.80
70151;DHT22;57517;43.562;19.540;2022-12-05T10:00:16;204.90;2252.80
70151;DHT22;57517;43.562;19.540;2022-12-05T10:03:07;204.90;2252.80
70151;DHT22;57517;43.562;19.540;2022-12-05T10:05:42;204.90;2252.80
70151;DHT22;57517;43.562;19.540;2022-12-05T10:08:20;205.00;2252.80
70151;DHT22;57517;43.562;19.540;2022-12-05T10:11:02;205.00;2252.80
70151;DHT22;57517;43.562;19.540;2022-12-05T10:13:59;205.10;2252.80
70151;DHT22;57517;43.562;19.540;2022-12-05T10:16:47;205.20;2252.80
70151;DHT22;57517;43.562;19.540;2022-12-05T10:19:20;205.20;2252.80
70151;DHT22;57517;43.562;19.540;2022-12-05T10:21:55;205.30;2252.80
70151;DHT22;57517;43.562;19.540;2022-12-05T10:24:50;205.30;2252.80
70151;DHT22;57517;43.562;19.540;2022-12-05T10:27:26;205.30;2252.80
70151;DHT22;57517;43.562;19.540;2022-12-05T10:30:01;205.30;2252.80
70151;DHT22;57517;43.562;19.540;2022-12-05T10:33:01;205.40;2252.80
70151;DHT22;57517;43.562;19.540;2022-12-05T10:35:32;205.40;2252.80
70151;DHT22;57517;43.562;19.540;2022-12-05T10:40:47;205.50;2252.80
70151;DHT22;57517;43.562;19.540;2022-12-05T10:43:23;205.50;2252.80
70151;DHT22;57517;43.562;19.540;2022-12-05T10:45:49;205.60;2252.80
70151;DHT22;57517;43.562;19.540;2022-12-05T10:48:17;205.60;2252.80
70151;DHT22;57517;43.562;19.540;2022-12-05T10:50:46;205.60;2252.80
70151;DHT22;57517;43.562;19.540;2022-12-05T10:53:26;205.70;2252.80
70151;DHT22;57517;43.562;19.540;2022-12-05T10:55:53;205.70;2252.80
70151;DHT22;57517;43.562;19.540;2022-12-05T10:58:24;205.70;2252.80
70151;DHT22;57517;43.562;19.540;2022-12-05T11:00:55;230.40;2252.80
70151;DHT22;57517;43.562;19.540;2022-12-05T11:05:55;230.50;2252.80
70151;DHT22;57517;43.562;19.540;2022-12-05T11:08:30;230.40;2252.80
70151;DHT22;57517;43.562;19.540;2022-12-05T11:11:28;230.50;2252.80
70151;DHT22;57517;43.562;19.540;2022-12-05T11:14:04;230.40;2252.80
70151;DHT22;57517;43.562;19.540;2022-12-05T11:16:36;230.40;2252.80
70151;DHT22;57517;43.562;19.540;2022-12-05T11:21:47;205.70;2252.80
70151;DHT22;57517;43.562;19.540;2022-12-05T11:24:30;230.40;2252.80
70151;DHT22;57517;43.562;19.540;2022-12-05T11:26:58;230.40;2252.80
70151;DHT22;57517;43.562;19.540;2022-12-05T11:29:33;230.40;2252.80
70151;DHT22;57517;43.562;19.540;2022-12-05T11:31:59;230.40;2252.80
70151;DHT22;57517;43.562;19.540;2022-12-05T11:34:30;230.50;2252.80
70151;DHT22;57517;43.562;19.540;2022-12-05T11:37:13;230.50;2252.80
70151;DHT22;57517;43.562;19.540;2022-12-05T11:39:40;230.50;2252.80
70151;DHT22;57517;43.562;19.540;2022-12-05T11:47:30;230.60;2252.80
70151;DHT22;57517;43.562;19.540;2022-12-05T11:58:22;230.60;2252.80
70151;DHT22;57517;43.562;19.540;2022-12-05T12:01:54;230.60;2252.80
70151;DHT22;57517;43.562;19.540;2022-12-05T12:21:02;230.40;2252.80
70151;DHT22;57517;43.562;19.540;2022-12-05T12:23:39;230.40;2252.80
70151;DHT22;57517;43.562;19.540;2022-12-05T12:26:13;205.70;2252.80
70151;DHT22;57517;43.562;19.540;2022-12-05T12:42:27;230.50;2252.80
70151;DHT22;57517;43.562;19.540;2022-12-05T12:48:14;230.60;2252.80
70151;DHT22;57517;43.562;19.540;2022-12-05T12:50:44;230.60;2252.80
70151;DHT22;57517;43.562;19.540;2022-12-05T12:56:13;230.60;2252.80
70151;DHT22;57517;43.562;19.540;2022-12-05T12:58:56;230.60;2252.80
70151;DHT22;57517;43.562;19.540;2022-12-05T13:01:48;230.70;2252.80
70151;DHT22;57517;43.562;19.540;2022-12-05T13:04:31;230.70;2252.80
70151;DHT22;57517;43.562;19.540;2022-12-05T13:07:17;230.70;2252.80
70151;DHT22;57517;43.562;19.540;2022-12-05T13:09:52;230.70;2252.80
70151;DHT22;57517;43.562;19.540;2022-12-05T13:12:31;230.70;2252.80
70151;DHT22;57517;43.562;19.540;2022-12-05T13:15:12;230.80;2252.80
70151;DHT22;57517;43.562;19.540;2022-12-05T13:17:40;230.90;2252.80
70151;DHT22;57517;43.562;19.540;2022-12-05T13:20:20;230.90;2252.80
70151;DHT22;57517;43.562;19.540;2022-12-05T13:22:49;231.00;2252.80
70151;DHT22;57517;43.562;19.540;2022-12-05T13:25:18;231.00;2252.80
70151;DHT22;57517;43.562;19.540;2022-12-05T13:27:54;231.00;2252.80
70151;DHT22;57517;43.562;19.540;2022-12-05T13:30:21;231.00;2252.80
70151;DHT22;57517;43.562;19.540;2022-12-05T13:32:55;231.00;2252.80
70151;DHT22;57517;43.562;19.540;2022-12-05T13:35:33;231.00;2252.80
70151;DHT22;57517;43.562;19.540;2022-12-05T13:38:29;231.00;2252.80
70151;DHT22;57517;43.562;19.540;2022-12-05T13:41:15;231.00;2252.80
70151;DHT22;57517;43.562;19.540;2022-12-05T13:43:59;231.00;2252.80
70151;DHT22;57517;43.562;19.540;2022-12-05T13:46:32;231.00;2252.80
70151;DHT22;57517;43.562;19.540;2022-12-05T13:49:02;231.00;2252.80
70151;DHT22;57517;43.562;19.540;2022-12-05T13:51:35;231.00;2252.80
70151;DHT22;57517;43.562;19.540;2022-12-05T13:56:49;231.00;2252.80
70151;DHT22;57517;43.562;19.540;2022-12-05T14:07:55;231.00;2252.80
70151;DHT22;57517;43.562;19.540;2022-12-05T14:10:23;231.00;2252.80
70151;DHT22;57517;43.562;19.540;2022-12-05T14:15:40;231.00;2252.80
70151;DHT22;57517;43.562;19.540;2022-12-05T14:18:34;231.00;2252.80
70151;DHT22;57517;43.562;19.540;2022-12-05T14:27:22;231.00;2252.80
70151;DHT22;57517;43.562;19.540;2022-12-05T14:30:29;231.00;2252.80
70151;DHT22;57517;43.562;19.540;2022-12-05T14:32:52;231.00;2252.80
70151;DHT22;57517;43.562;19.540;2022-12-05T14:35:28;231.00;2252.80
70151;DHT22;57517;43.562;19.540;2022-12-05T14:37:57;231.00;2252.80
70151;DHT22;57517;43.562;19.540;2022-12-05T14:40:40;231.00;2252.80
70151;DHT22;57517;43.562;19.540;2022-12-05T14:43:30;231.00;2252.80
70151;DHT22;57517;43.562;19.540;2022-12-05T14:46:00;231.00;2252.80
70151;DHT22;57517;43.562;19.540;2022-12-05T14:48:39;231.00;2252.80
70151;DHT22;57517;43.562;19.540;2022-12-05T14:53:50;231.00;2252.80
70151;DHT22;57517;43.562;19.540;2022-12-05T14:56:21;231.00;2252.80
70151;DHT22;57517;43.562;19.540;2022-12-05T14:58:59;231.00;2252.80
70151;DHT22;57517;43.562;19.540;2022-12-05T15:01:43;231.00;2252.80
70151;DHT22;57517;43.562;19.540;2022-12-05T15:04:23;231.00;2252.80
70151;DHT22;57517;43.562;19.540;2022-12-05T15:06:59;231.00;2252.80
70151;DHT22;57517;43.562;19.540;2022-12-05T15:09:41;230.90;2252.80
70151;DHT22;57517;43.562;19.540;2022-12-05T15:12:19;230.90;2252.80
70151;DHT22;57517;43.562;19.540;2022-12-05T15:17:52;230.80;2252.80
70151;DHT22;57517;43.562;19.540;2022-12-05T15:22:55;230.80;2252.80
70151;DHT22;57517;43.562;19.540;2022-12-05T15:25:23;230.80;2252.80
70151;DHT22;57517;43.562;19.540;2022-12-05T15:28:15;230.80;2252.80
70151;DHT22;57517;43.562;19.540;2022-12-05T15:30:42;230.80;2252.80
70151;DHT22;57517;43.562;19.540;2022-12-05T15:33:12;230.80;2252.80
70151;DHT22;57517;43.562;19.540;2022-12-05T15:35:39;230.70;2252.80
70151;DHT22;57517;43.562;19.540;2022-12-05T15:38:13;230.70;2252.80
70151;DHT22;57517;43.562;19.540;2022-12-05T15:40:45;230.70;2252.80
70151;DHT22;57517;43.562;19.540;2022-12-05T15:43:31;230.70;2252.80
70151;DHT22;57517;43.562;19.540;2022-12-05T15:46:07;230.70;2252.80
70151;DHT22;57517;43.562;19.540;2022-12-05T15:48:33;230.70;2252.80
70151;DHT22;57517;43.562;19.540;2022-12-05T15:51:00;230.60;2252.80
70151;DHT22;57517;43.562;19.540;2022-12-05T15:53:31;230.60;2252.80
70151;DHT22;57517;43.562;19.540;2022-12-05T15:56:05;230.60;2252.80
70151;DHT22;57517;43.562;19.540;2022-12-05T16:01:15;230.60;2252.80
70151;DHT22;57517;43.562;19.540;2022-12-05T16:04:21;230.60;2252.80
70151;DHT22;57517;43.562;19.540;2022-12-05T16:06:51;230.50;2252.80
70151;DHT22;57517;43.562;19.540;2022-12-05T16:09:23;230.50;2252.80
70151;DHT22;57517;43.562;19.540;2022-12-05T16:12:03;230.50;2252.80
70151;DHT22;57517;43.562;19.540;2022-12-05T16:14:39;230.50;2252.80
70151;DHT22;57517;43.562;19.540;2022-12-05T16:17:07;230.50;2252.80
70151;DHT22;57517;43.562;19.540;2022-12-05T16:19:35;230.50;2252.80
70151;DHT22;57517;43.562;19.540;2022-12-05T16:27:24;230.50;2252.80
70151;DHT22;57517;43.562;19.540;2022-12-05T16:30:20;230.50;2252.80
70151;DHT22;57517;43.562;19.540;2022-12-05T16:32:48;230.50;2252.80
70151;DHT22;57517;43.562;19.540;2022-12-05T16:35:36;230.50;2252.80
70151;DHT22;57517;43.562;19.540;2022-12-05T16:38:17;230.50;2252.80
70151;DHT22;57517;43.562;19.540;2022-12-05T16:45:52;230.60;2252.80
70151;DHT22;57517;43.562;19.540;2022-12-05T16:48:26;230.60;2252.80
70151;DHT22;57517;43.562;19.540;2022-12-05T16:53:39;230.60;2252.80
70151;DHT22;57517;43.562;19.540;2022-12-05T16:56:29;230.60;2252.80
70151;DHT22;57517;43.562;19.540;2022-12-05T16:58:56;230.60;2252.80
70151;DHT22;57517;43.562;19.540;2022-12-05T17:01:26;230.60;2252.80
70151;DHT22;57517;43.562;19.540;2022-12-05T17:03:53;230.60;2252.80
70151;DHT22;57517;43.562;19.540;2022-12-05T17:06:20;230.60;2252.80
70151;DHT22;57517;43.562;19.540;2022-12-05T17:08:47;230.60;2252.80
70151;DHT22;57517;43.562;19.540;2022-12-05T17:11:25;230.60;2252.80
70151;DHT22;57517;43.562;19.540;2022-12-05T17:13:53;230.60;2252.80
70151;DHT22;57517;43.562;19.540;2022-12-05T17:16:20;230.70;2252.80
70151;DHT22;57517;43.562;19.540;2022-12-05T17:18:46;230.60;2252.80
70151;DHT22;57517;43.562;19.540;2022-12-05T17:21:17;230.70;2252.80
70151;DHT22;57517;43.562;19.540;2022-12-05T17:23:45;230.70;2252.80
70151;DHT22;57517;43.562;19.540;2022-12-05T17:26:15;230.60;2252.80
70151;DHT22;57517;43.562;19.540;2022-12-05T17:28:42;230.60;2252.80
70151;DHT22;57517;43.562;19.540;2022-12-05T17:31:10;230.40;2252.80
70151;DHT22;57517;43.562;19.540;2022-12-05T17:33:36;230.40;2252.80
70151;DHT22;57517;43.562;19.540;2022-12-05T17:36:03;205.70;2252.80